Time;durP1;ratioP1;P1;durP2;ratioP2;P2;SDS_P1;SDS_P2;PMS_P1;PMS_P2;Temp;Humidity;BMP_temperature;BMP_pressure;BME280_temperature;BME280_humidity;BME280_pressure;Samples;Min_cycle;Max_cycle;Signal;HPM_P1;HPM_P2
2022/10/04 00:02:06;;;;;;;;;30.75;30.00;;;;;;;;5049833;28;11490;-82
2022/10/04 00:04:43;;;;;;;;;29.25;27.25;;;;;;;;5047547;28;11519;-83
2022/10/04 00:07:18;;;;;;;;;28.75;26.75;;;;;;;;5049358;28;11509;-83
2022/10/04 00:09:49;;;;;;;;;27.25;23.50;;;;;;;;5051692;28;12253;-81
2022/10/04 00:12:22;;;;;;;;;33.25;27.75;;;;;;;;5049703;28;11583;-82
2022/10/04 00:14:50;;;;;;;;;23.00;19.50;;;;;;;;5050860;28;11548;-83
2022/10/04 00:17:22;;;;;;;;;20.50;19.25;;;;;;;;5051070;28;11569;-83
2022/10/04 00:19:51;;;;;;;;;23.50;21.25;;;;;;;;5051936;28;11300;-83
2022/10/04 00:22:20;;;;;;;;;18.50;17.00;;;;;;;;5052498;28;11548;-82
2022/10/04 00:25:17;;;;;;;;;19.00;16.50;;;;;;;;5049986;28;11313;-84
2022/10/04 00:28:24;;;;;;;;;16.50;14.00;;;;;;;;5009950;28;11254;-83
2022/10/04 00:31:09;;;;;;;;;14.25;14.25;;;;;;;;5049901;28;11213;-83
2022/10/04 00:33:37;;;;;;;;;12.50;10.75;;;;;;;;5032549;28;11515;-83
2022/10/04 00:36:40;;;;;;;;;12.50;11.00;;;;;;;;5051588;28;11467;-83
2022/10/04 00:39:49;;;;;;;;;13.75;11.75;;;;;;;;5050579;28;11267;-82
2022/10/04 00:42:36;;;;;;;;;13.50;11.50;;;;;;;;5030112;28;11547;-83
2022/10/04 00:45:11;;;;;;;;;16.50;13.25;;;;;;;;5054162;28;11296;-82
2022/10/04 00:48:16;;;;;;;;;13.00;13.00;;;;;;;;5054695;28;11329;-82
2022/10/04 00:50:45;;;;;;;;;10.25;10.25;;;;;;;;5055062;28;11484;-83
2022/10/04 00:53:18;;;;;;;;;11.00;11.00;;;;;;;;5055644;28;11848;-83
2022/10/04 00:55:50;;;;;;;;;14.00;13.00;;;;;;;;5052040;28;11194;-83
2022/10/04 00:58:22;;;;;;;;;19.25;17.25;;;;;;;;5055468;28;11317;-83
2022/10/04 01:00:49;;;;;;;;;14.00;14.00;;;;;;;;5035737;28;11454;-83
2022/10/04 01:03:23;;;;;;;;;13.50;13.50;;;;;;;;5054428;28;11381;-83
2022/10/04 01:05:55;;;;;;;;;11.00;11.00;;;;;;;;5053731;28;11689;-83
2022/10/04 01:08:25;;;;;;;;;12.25;12.25;;;;;;;;5053532;28;11126;-83
2022/10/04 01:10:57;;;;;;;;;17.50;12.25;;;;;;;;5056245;28;11222;-82
2022/10/04 01:13:28;;;;;;;;;17.00;17.00;;;;;;;;5053307;28;11498;-83
2022/10/04 01:16:00;;;;;;;;;13.00;13.00;;;;;;;;5053501;28;11644;-82
2022/10/04 01:18:35;;;;;;;;;15.75;14.50;;;;;;;;5053073;28;11170;-82
2022/10/04 01:21:05;;;;;;;;;7.75;7.75;;;;;;;;5054105;28;11332;-83
2022/10/04 01:23:43;;;;;;;;;3.50;3.50;;;;;;;;5053060;28;11460;-82
2022/10/04 01:26:37;;;;;;;;;12.50;11.00;;;;;;;;5049598;28;11327;-82
2022/10/04 01:29:09;;;;;;;;;14.00;14.00;;;;;;;;5054594;28;12028;-82
2022/10/04 01:31:39;;;;;;;;;14.00;14.00;;;;;;;;5052719;28;11192;-83
2022/10/04 01:34:07;;;;;;;;;11.00;11.00;;;;;;;;5052239;28;11503;-82
2022/10/04 01:36:36;;;;;;;;;13.25;12.75;;;;;;;;5054665;28;11280;-83
2022/10/04 01:39:06;;;;;;;;;15.00;15.00;;;;;;;;5051648;28;11489;-82
2022/10/04 01:41:41;;;;;;;;;18.25;16.25;;;;;;;;5054388;28;11522;-83
2022/10/04 01:44:11;;;;;;;;;13.00;11.25;;;;;;;;5050441;28;11231;-83
2022/10/04 01:46:40;;;;;;;;;22.00;16.50;;;;;;;;5054068;28;11219;-83
2022/10/04 01:49:11;;;;;;;;;19.25;16.75;;;;;;;;5054575;28;12248;-83
2022/10/04 01:51:42;;;;;;;;;20.00;15.50;;;;;;;;5053209;28;11287;-83
2022/10/04 01:54:14;;;;;;;;;16.75;14.00;;;;;;;;5052988;28;11501;-82
2022/10/04 01:56:46;;;;;;;;;16.00;14.50;;;;;;;;5035479;28;11292;-83
2022/10/04 01:59:17;;;;;;;;;16.00;16.00;;;;;;;;5054157;28;11580;-82
2022/10/04 02:01:48;;;;;;;;;17.00;14.00;;;;;;;;5052996;28;11557;-82
2022/10/04 02:04:18;;;;;;;;;22.75;19.00;;;;;;;;5051731;28;11511;-83
2022/10/04 02:06:46;;;;;;;;;23.50;20.00;;;;;;;;5053757;28;11504;-83
2022/10/04 02:09:19;;;;;;;;;19.50;16.00;;;;;;;;5051684;28;11485;-83
2022/10/04 02:11:49;;;;;;;;;17.75;16.00;;;;;;;;5051645;28;11223;-81
2022/10/04 02:14:20;;;;;;;;;17.50;17.25;;;;;;;;5034033;28;11493;-83
2022/10/04 02:16:51;;;;;;;;;13.50;13.50;;;;;;;;5053571;28;11497;-83
2022/10/04 02:19:18;;;;;;;;;11.00;11.00;;;;;;;;5035208;28;11670;-83
2022/10/04 02:21:51;;;;;;;;;14.00;13.25;;;;;;;;5051468;28;11356;-84
2022/10/04 02:24:20;;;;;;;;;15.00;13.25;;;;;;;;5035408;28;11504;-83
2022/10/04 02:26:52;;;;;;;;;16.25;14.00;;;;;;;;5034451;28;11499;-84
2022/10/04 02:29:20;;;;;;;;;13.50;11.50;;;;;;;;5053371;28;11491;-83
2022/10/04 02:34:34;;;;;;;;;14.25;13.25;;;;;;;;5050086;28;12949;-84
2022/10/04 02:37:02;;;;;;;;;15.50;14.25;;;;;;;;5052902;28;11504;-83
2022/10/04 02:39:35;;;;;;;;;9.75;9.25;;;;;;;;5035107;28;11512;-84
2022/10/04 02:42:04;;;;;;;;;13.50;13.50;;;;;;;;5054410;28;11456;-84
2022/10/04 02:44:37;;;;;;;;;15.75;14.25;;;;;;;;5050964;28;11505;-84
2022/10/04 02:47:09;;;;;;;;;13.50;11.25;;;;;;;;5053960;28;11649;-84
2022/10/04 02:49:40;;;;;;;;;11.00;11.00;;;;;;;;5053077;28;11467;-85
2022/10/04 02:52:15;;;;;;;;;11.25;9.25;;;;;;;;5053785;28;11561;-83
2022/10/04 02:54:48;;;;;;;;;14.00;13.25;;;;;;;;5052198;28;11615;-83
2022/10/04 02:57:18;;;;;;;;;8.50;8.50;;;;;;;;5051745;28;11591;-83
2022/10/04 02:59:45;;;;;;;;;11.75;11.75;;;;;;;;5053536;28;11480;-83
2022/10/04 03:02:24;;;;;;;;;14.00;14.00;;;;;;;;5033464;28;11447;-83
2022/10/04 03:04:53;;;;;;;;;14.00;14.00;;;;;;;;5051443;28;11534;-83
2022/10/04 03:07:22;;;;;;;;;15.50;14.50;;;;;;;;5052744;28;11484;-82
2022/10/04 03:09:51;;;;;;;;;10.75;10.75;;;;;;;;5033941;28;11499;-82
2022/10/04 03:12:21;;;;;;;;;13.75;13.75;;;;;;;;5052362;28;11473;-83
2022/10/04 03:14:48;;;;;;;;;13.75;13.75;;;;;;;;5031987;28;11489;-83
2022/10/04 03:17:17;;;;;;;;;13.00;10.50;;;;;;;;5052864;28;11554;-83
2022/10/04 03:19:44;;;;;;;;;12.00;12.00;;;;;;;;5050801;28;11513;-83
2022/10/04 03:22:12;;;;;;;;;11.25;9.25;;;;;;;;5052795;28;11503;-84
2022/10/04 03:24:45;;;;;;;;;13.50;13.50;;;;;;;;5032465;28;11486;-83
2022/10/04 03:27:18;;;;;;;;;15.50;15.50;;;;;;;;5051254;28;11483;-84
2022/10/04 03:29:45;;;;;;;;;11.00;11.00;;;;;;;;5052186;28;11636;-84
2022/10/04 03:32:14;;;;;;;;;16.00;16.00;;;;;;;;5051133;28;11237;-84
2022/10/04 03:34:45;;;;;;;;;15.75;13.00;;;;;;;;5051470;28;12121;-84
2022/10/04 03:37:16;;;;;;;;;12.75;10.00;;;;;;;;5033447;28;11576;-84
2022/10/04 03:39:46;;;;;;;;;11.25;9.00;;;;;;;;5051387;28;11211;-84
2022/10/04 03:42:18;;;;;;;;;10.00;10.00;;;;;;;;5050987;28;11173;-84
2022/10/04 03:44:46;;;;;;;;;10.50;10.50;;;;;;;;5049536;28;11113;-84
2022/10/04 03:47:17;;;;;;;;;12.75;10.00;;;;;;;;5053202;28;11088;-84
2022/10/04 03:49:46;;;;;;;;;9.50;9.50;;;;;;;;5050437;28;11054;-84
2022/10/04 03:52:18;;;;;;;;;12.50;11.75;;;;;;;;5053314;28;11154;-83
2022/10/04 03:54:46;;;;;;;;;9.50;9.50;;;;;;;;5032067;28;11944;-84
2022/10/04 03:57:15;;;;;;;;;14.25;9.75;;;;;;;;5034544;28;11359;-84
2022/10/04 03:59:43;;;;;;;;;15.00;12.50;;;;;;;;5051196;28;11129;-84
2022/10/04 04:02:16;;;;;;;;;9.50;9.00;;;;;;;;5050919;28;11081;-84
2022/10/04 04:04:49;;;;;;;;;12.25;11.25;;;;;;;;5050744;28;11078;-83
2022/10/04 04:07:21;;;;;;;;;11.75;8.25;;;;;;;;5051678;28;11126;-82
2022/10/04 04:09:53;;;;;;;;;8.00;8.00;;;;;;;;5051172;28;12154;-83
2022/10/04 04:12:25;;;;;;;;;8.50;8.50;;;;;;;;5050838;28;10983;-83
2022/10/04 04:14:54;;;;;;;;;8.00;8.00;;;;;;;;5049641;28;11905;-81
2022/10/04 04:17:35;;;;;;;;;7.00;7.00;;;;;;;;5053915;28;11195;-82
2022/10/04 04:20:07;;;;;;;;;8.75;8.75;;;;;;;;5053218;28;11831;-83
2022/10/04 04:22:36;;;;;;;;;9.75;9.75;;;;;;;;5056541;28;11141;-81
2022/10/04 04:25:07;;;;;;;;;9.25;9.25;;;;;;;;5052708;28;11219;-81
2022/10/04 04:27:38;;;;;;;;;8.50;8.50;;;;;;;;5055021;28;11191;-81
2022/10/04 04:30:07;;;;;;;;;11.25;9.00;;;;;;;;5054315;28;11112;-81
2022/10/04 04:32:39;;;;;;;;;12.00;9.50;;;;;;;;5054229;28;11180;-82
2022/10/04 04:35:07;;;;;;;;;10.50;9.75;;;;;;;;5053309;28;10984;-81
2022/10/04 04:37:35;;;;;;;;;12.50;12.50;;;;;;;;5055868;28;11266;-81
2022/10/04 04:40:19;;;;;;;;;10.25;10.25;;;;;;;;5038274;28;11242;-81
2022/10/04 04:42:50;;;;;;;;;10.50;10.50;;;;;;;;5055861;28;11476;-81
2022/10/04 04:45:19;;;;;;;;;11.00;11.00;;;;;;;;5053346;28;11196;-81
2022/10/04 04:47:50;;;;;;;;;12.25;10.25;;;;;;;;5056730;28;11445;-81
2022/10/04 04:50:19;;;;;;;;;13.00;13.00;;;;;;;;5054937;28;11305;-82
2022/10/04 04:52:49;;;;;;;;;11.75;11.25;;;;;;;;5056043;28;11192;-83
2022/10/04 04:55:19;;;;;;;;;10.75;10.75;;;;;;;;5052710;28;11211;-82
2022/10/04 04:57:49;;;;;;;;;10.75;9.25;;;;;;;;5055288;28;11189;-81
2022/10/04 05:00:19;;;;;;;;;12.25;11.00;;;;;;;;5054193;28;11188;-84
2022/10/04 05:02:54;;;;;;;;;10.25;10.25;;;;;;;;5053651;28;11067;-83
2022/10/04 05:05:25;;;;;;;;;11.25;11.25;;;;;;;;5065028;28;11152;-85
2022/10/04 05:08:06;;;;;;;;;8.00;8.00;;;;;;;;5033979;28;11863;-82
2022/10/04 05:10:36;;;;;;;;;8.50;8.50;;;;;;;;5054718;28;11214;-82
2022/10/04 05:13:06;;;;;;;;;9.00;7.00;;;;;;;;5035552;28;11065;-81
2022/10/04 05:15:35;;;;;;;;;8.25;8.25;;;;;;;;5052689;28;11171;-83
2022/10/04 05:18:16;;;;;;;;;9.75;7.50;;;;;;;;5054257;28;11112;-83
2022/10/04 05:20:48;;;;;;;;;8.25;8.25;;;;;;;;5054228;28;11179;-83
2022/10/04 05:23:16;;;;;;;;;8.50;8.25;;;;;;;;5053488;28;11232;-83
2022/10/04 05:25:44;;;;;;;;;9.00;9.00;;;;;;;;5051994;28;11207;-84
2022/10/04 05:28:14;;;;;;;;;8.75;7.00;;;;;;;;5053382;28;11087;-83
2022/10/04 05:30:52;;;;;;;;;7.00;7.00;;;;;;;;5052424;28;11022;-84
2022/10/04 05:33:24;;;;;;;;;7.00;7.00;;;;;;;;5054368;28;11143;-83
2022/10/04 05:36:21;;;;;;;;;5.50;5.50;;;;;;;;5050785;28;11053;-83
2022/10/04 05:38:53;;;;;;;;;12.00;10.75;;;;;;;;5049994;28;11098;-83
2022/10/04 05:41:27;;;;;;;;;11.75;8.75;;;;;;;;5053803;28;11499;-81
2022/10/04 05:44:01;;;;;;;;;13.50;11.25;;;;;;;;5047525;28;11578;-79
2022/10/04 05:46:29;;;;;;;;;9.75;9.75;;;;;;;;5051661;28;11306;-75
2022/10/04 05:49:00;;;;;;;;;11.75;9.25;;;;;;;;5052218;28;12034;-84
2022/10/04 05:51:29;;;;;;;;;10.00;10.00;;;;;;;;5049767;28;11620;-76
2022/10/04 05:54:00;;;;;;;;;5.50;5.50;;;;;;;;5031237;28;11446;-76
2022/10/04 05:56:50;;;;;;;;;9.25;8.00;;;;;;;;5049575;28;11237;-77
2022/10/04 05:59:36;;;;;;;;;11.75;11.75;;;;;;;;5050342;28;11486;-75
2022/10/04 06:02:13;;;;;;;;;8.00;8.00;;;;;;;;5049951;28;12242;-76
2022/10/04 06:04:56;;;;;;;;;12.00;10.00;;;;;;;;5047507;28;11144;-77
2022/10/04 06:07:30;;;;;;;;;13.00;9.00;;;;;;;;5051394;28;11483;-77
2022/10/04 06:10:08;;;;;;;;;15.25;14.25;;;;;;;;5049950;28;11323;-77
2022/10/04 06:12:44;;;;;;;;;13.00;10.00;;;;;;;;5051756;28;11599;-77
2022/10/04 06:15:58;;;;;;;;;9.00;9.00;;;;;;;;5048508;28;11482;-75
2022/10/04 06:18:40;;;;;;;;;10.00;10.00;;;;;;;;5051112;28;11505;-77
2022/10/04 06:21:22;;;;;;;;;12.75;11.25;;;;;;;;5051725;28;11500;-76
2022/10/04 06:23:57;;;;;;;;;14.00;14.00;;;;;;;;5049415;28;11490;-77
2022/10/04 06:26:28;;;;;;;;;10.00;10.00;;;;;;;;5051685;28;11529;-76
2022/10/04 06:29:01;;;;;;;;;9.00;9.00;;;;;;;;5034579;28;11592;-76
2022/10/04 06:32:11;;;;;;;;;10.25;10.25;;;;;;;;5030193;28;11426;-76
2022/10/04 06:35:05;;;;;;;;;11.00;11.00;;;;;;;;5019193;28;12322;-76
2022/10/04 06:38:05;;;;;;;;;10.50;10.50;;;;;;;;5050843;28;11431;-76
2022/10/04 06:40:51;;;;;;;;;12.50;12.50;;;;;;;;5047438;28;11607;-75
2022/10/04 06:43:29;;;;;;;;;11.50;8.75;;;;;;;;5015399;28;12535;-73
2022/10/04 06:46:07;;;;;;;;;10.50;10.50;;;;;;;;5048086;28;11427;-76
2022/10/04 06:48:57;;;;;;;;;7.50;7.50;;;;;;;;5045973;28;11486;-74
2022/10/04 06:51:39;;;;;;;;;10.00;10.00;;;;;;;;5049199;28;11466;-76
2022/10/04 06:54:20;;;;;;;;;8.75;8.75;;;;;;;;5044266;28;11446;-74
2022/10/04 06:57:01;;;;;;;;;12.25;12.25;;;;;;;;5050908;28;12453;-73
2022/10/04 06:59:51;;;;;;;;;7.50;7.50;;;;;;;;5050837;28;11490;-73
2022/10/04 07:02:22;;;;;;;;;9.25;9.25;;;;;;;;5046797;28;11387;-74
2022/10/04 07:04:54;;;;;;;;;7.50;7.50;;;;;;;;5025711;28;11574;-72
2022/10/04 07:07:36;;;;;;;;;12.75;12.75;;;;;;;;5050199;28;11505;-74
2022/10/04 07:10:22;;;;;;;;;13.25;13.25;;;;;;;;5046395;28;11539;-73
2022/10/04 07:12:57;;;;;;;;;12.50;10.50;;;;;;;;5050380;28;11521;-74
2022/10/04 07:15:28;;;;;;;;;13.50;11.00;;;;;;;;5044045;28;11462;-74
2022/10/04 07:18:02;;;;;;;;;12.75;10.00;;;;;;;;5050102;28;11489;-73
2022/10/04 07:20:32;;;;;;;;;21.00;14.00;;;;;;;;5045075;28;11487;-73
2022/10/04 07:23:05;;;;;;;;;13.75;13.00;;;;;;;;5049617;28;11330;-73
2022/10/04 07:25:35;;;;;;;;;13.75;13.75;;;;;;;;5045780;28;11174;-73
2022/10/04 07:31:02;;;;;;;;;14.00;14.00;;;;;;;;5034413;28;11955;-74
2022/10/04 07:33:34;;;;;;;;;14.50;12.00;;;;;;;;5049440;28;10963;-73
2022/10/04 07:36:05;;;;;;;;;12.50;9.50;;;;;;;;5030736;28;11067;-74
2022/10/04 07:38:38;;;;;;;;;8.50;8.50;;;;;;;;5050346;28;11027;-76
2022/10/04 07:41:09;;;;;;;;;10.25;10.25;;;;;;;;5048534;28;10929;-73
2022/10/04 07:43:46;;;;;;;;;17.00;15.75;;;;;;;;5048191;28;10981;-73
2022/10/04 07:46:20;;;;;;;;;22.75;18.25;;;;;;;;5048782;28;10917;-75
2022/10/04 07:48:48;;;;;;;;;26.00;22.50;;;;;;;;5029532;28;11173;-74
2022/10/04 07:51:23;;;;;;;;;22.25;18.00;;;;;;;;5049170;28;11181;-74
2022/10/04 07:53:56;;;;;;;;;19.50;14.75;;;;;;;;5044152;28;11130;-75
2022/10/04 07:56:30;;;;;;;;;16.00;14.25;;;;;;;;5048932;28;10904;-75
2022/10/04 07:59:16;;;;;;;;;11.25;10.75;;;;;;;;5047540;28;10901;-76
2022/10/04 08:01:48;;;;;;;;;18.00;15.25;;;;;;;;5049101;28;11654;-73
2022/10/04 08:04:28;;;;;;;;;18.25;15.00;;;;;;;;5027272;28;10745;-74
2022/10/04 08:06:59;;;;;;;;;16.00;15.50;;;;;;;;5048647;28;10803;-74
2022/10/04 08:09:38;;;;;;;;;14.00;14.00;;;;;;;;5049228;28;10838;-75
2022/10/04 08:12:15;;;;;;;;;20.25;18.50;;;;;;;;5027482;28;10688;-75
2022/10/04 08:14:52;;;;;;;;;12.50;12.50;;;;;;;;5046825;28;10850;-76
2022/10/04 08:17:41;;;;;;;;;17.00;17.00;;;;;;;;5051301;28;10556;-75
2022/10/04 08:20:37;;;;;;;;;21.50;16.50;;;;;;;;5049419;28;10617;-74
2022/10/04 08:23:20;;;;;;;;;19.25;19.25;;;;;;;;5050196;28;10522;-75
2022/10/04 08:25:57;;;;;;;;;16.75;15.50;;;;;;;;5046668;28;10366;-75
2022/10/04 08:31:24;;;;;;;;;25.25;19.75;;;;;;;;5034865;28;10049;-75
2022/10/04 08:34:10;;;;;;;;;21.50;20.50;;;;;;;;5046208;28;10204;-75
2022/10/04 08:36:47;;;;;;;;;20.75;19.75;;;;;;;;5049673;28;10732;-76
2022/10/04 08:39:30;;;;;;;;;21.00;20.25;;;;;;;;5049535;28;10126;-76
2022/10/04 08:42:28;;;;;;;;;21.75;19.25;;;;;;;;5030024;28;10062;-75
2022/10/04 08:45:21;;;;;;;;;19.25;19.25;;;;;;;;5045298;28;10125;-75
2022/10/04 08:48:29;;;;;;;;;27.00;24.50;;;;;;;;5049918;28;10035;-75
2022/10/04 08:51:15;;;;;;;;;19.50;19.50;;;;;;;;5049101;28;10257;-75
2022/10/04 08:54:22;;;;;;;;;25.00;23.00;;;;;;;;5047809;28;10132;-76
2022/10/04 08:57:05;;;;;;;;;22.25;22.25;;;;;;;;5049738;28;10041;-75
2022/10/04 09:00:02;;;;;;;;;25.50;24.25;;;;;;;;5047948;28;10004;-75
2022/10/04 09:02:53;;;;;;;;;28.00;25.75;;;;;;;;5049591;28;10145;-75
2022/10/04 09:05:54;;;;;;;;;23.00;22.00;;;;;;;;5052649;28;10034;-75
2022/10/04 09:09:00;;;;;;;;;30.50;30.00;;;;;;;;5043720;28;10653;-75
2022/10/04 09:11:46;;;;;;;;;29.25;29.25;;;;;;;;5046946;28;10170;-76
2022/10/04 09:14:43;;;;;;;;;28.75;28.75;;;;;;;;5052376;28;10056;-75
2022/10/04 09:17:21;;;;;;;;;24.50;24.50;;;;;;;;5052557;28;9914;-76
2022/10/04 09:19:56;;;;;;;;;23.00;18.50;;;;;;;;5054014;28;10028;-76
2022/10/04 09:22:43;;;;;;;;;27.00;26.00;;;;;;;;5054279;28;9874;-75
2022/10/04 09:25:41;;;;;;;;;34.50;34.25;;;;;;;;5050967;28;9907;-76
2022/10/04 09:28:39;;;;;;;;;31.00;28.50;;;;;;;;5050926;28;9861;-75
2022/10/04 09:31:39;;;;;;;;;37.25;33.75;;;;;;;;5031945;28;9647;-76
2022/10/04 09:34:21;;;;;;;;;33.50;33.00;;;;;;;;5008844;28;9731;-76
2022/10/04 09:37:11;;;;;;;;;31.25;29.25;;;;;;;;5053099;28;9795;-76
2022/10/04 09:40:05;;;;;;;;;36.75;33.00;;;;;;;;5053232;28;9813;-76
2022/10/04 09:43:00;;;;;;;;;32.25;30.00;;;;;;;;5052326;28;9658;-76
2022/10/04 09:45:45;;;;;;;;;35.25;33.75;;;;;;;;5051231;28;10498;-75
2022/10/04 09:48:25;;;;;;;;;37.50;35.75;;;;;;;;5053036;28;9965;-75
2022/10/04 09:51:30;;;;;;;;;36.00;33.25;;;;;;;;5034357;28;10108;-75
2022/10/04 09:54:22;;;;;;;;;37.00;33.75;;;;;;;;5052150;28;9936;-76
2022/10/04 09:57:01;;;;;;;;;38.50;36.00;;;;;;;;5053260;28;9849;-76
2022/10/04 10:00:09;;;;;;;;;30.50;27.25;;;;;;;;5052282;28;9791;-76
2022/10/04 10:03:07;;;;;;;;;39.00;32.50;;;;;;;;5034734;28;9556;-76
2022/10/04 10:05:59;;;;;;;;;32.33;29.00;;;;;;;;5049195;28;9569;-76
2022/10/04 10:08:35;;;;;;;;;30.00;30.00;;;;;;;;5032218;28;9424;-76
2022/10/04 10:14:29;;;;;;;;;34.00;33.00;;;;;;;;5050104;28;9251;-75
2022/10/04 10:17:05;;;;;;;;;29.33;27.33;;;;;;;;5049997;28;9264;-76
2022/10/04 10:20:01;;;;;;;;;33.00;30.67;;;;;;;;5035165;28;8950;-76
2022/10/04 10:22:52;;;;;;;;;36.33;35.00;;;;;;;;5051787;28;10446;-76
2022/10/04 10:25:32;;;;;;;;;39.50;31.00;;;;;;;;5033183;28;9012;-76
2022/10/04 10:28:30;;;;;;;;;29.75;27.25;;;;;;;;5053482;28;8864;-76
2022/10/04 10:31:12;;;;;;;;;33.50;27.00;;;;;;;;5046209;28;8953;-76
2022/10/04 10:34:07;;;;;;;;;26.50;25.25;;;;;;;;5051127;28;8965;-76
2022/10/04 10:36:59;;;;;;;;;23.00;23.00;;;;;;;;5053851;28;8989;-76
2022/10/04 10:39:48;;;;;;;;;24.25;22.75;;;;;;;;5051248;28;8891;-76
2022/10/04 10:42:43;;;;;;;;;20.75;20.75;;;;;;;;5034453;28;9732;-77
2022/10/04 10:45:20;;;;;;;;;22.75;20.75;;;;;;;;5050249;28;8864;-76
2022/10/04 10:47:55;;;;;;;;;21.50;20.00;;;;;;;;5051217;28;8888;-76
2022/10/04 10:50:57;;;;;;;;;19.75;19.00;;;;;;;;5052975;28;8888;-76
2022/10/04 10:54:04;;;;;;;;;23.25;19.50;;;;;;;;5052022;28;8876;-76
2022/10/04 10:56:44;;;;;;;;;24.50;23.00;;;;;;;;5009366;28;8872;-76
2022/10/04 10:59:40;;;;;;;;;18.50;18.50;;;;;;;;5051335;28;8892;-76
2022/10/04 11:02:43;;;;;;;;;21.75;21.75;;;;;;;;5050626;28;8904;-76
2022/10/04 11:05:28;;;;;;;;;21.00;21.00;;;;;;;;5046466;28;8864;-78
2022/10/04 11:07:57;;;;;;;;;21.75;19.50;;;;;;;;5050806;28;8895;-78
2022/10/04 11:11:06;;;;;;;;;21.50;19.25;;;;;;;;5049874;28;8890;-79
2022/10/04 11:14:11;;;;;;;;;15.75;15.75;;;;;;;;4985687;28;9719;-79
2022/10/04 11:17:04;;;;;;;;;17.50;15.25;;;;;;;;4985117;28;8890;-75
2022/10/04 11:20:04;;;;;;;;;12.75;12.75;;;;;;;;5045126;28;8949;-75
2022/10/04 11:23:07;;;;;;;;;14.80;14.80;;;;;;;;5048916;28;8856;-76
2022/10/04 11:25:57;;;;;;;;;14.50;14.50;;;;;;;;5033919;28;8888;-75
2022/10/04 11:28:31;;;;;;;;;11.20;11.20;;;;;;;;5048269;28;9622;-75
2022/10/04 11:31:32;;;;;;;;;14.00;13.40;;;;;;;;5049199;28;8817;-78
2022/10/04 11:34:25;;;;;;;;;12.20;12.20;;;;;;;;5048115;28;8907;-76
2022/10/04 11:37:03;;;;;;;;;9.00;9.00;;;;;;;;5049213;28;8938;-77
2022/10/04 11:40:04;;;;;;;;;10.80;10.80;;;;;;;;5031903;28;8911;-77
2022/10/04 11:42:44;;;;;;;;;10.40;10.40;;;;;;;;5040582;28;8872;-76
2022/10/04 11:45:42;;;;;;;;;10.40;9.80;;;;;;;;5046311;28;9693;-76
2022/10/04 11:48:23;;;;;;;;;11.00;10.40;;;;;;;;5049133;28;9000;-76
2022/10/04 11:51:18;;;;;;;;;9.20;9.20;;;;;;;;5050590;28;8892;-76
2022/10/04 11:54:12;;;;;;;;;8.80;8.80;;;;;;;;5046647;28;8900;-78
2022/10/04 11:56:55;;;;;;;;;9.20;8.60;;;;;;;;5048414;28;8890;-76
2022/10/04 11:59:36;;;;;;;;;5.00;5.00;;;;;;;;5048709;28;8860;-75
2022/10/04 12:02:25;;;;;;;;;9.40;9.40;;;;;;;;5048136;28;8793;-77
2022/10/04 12:05:20;;;;;;;;;10.60;10.60;;;;;;;;5047683;28;8860;-76
2022/10/04 12:08:08;;;;;;;;;8.00;8.00;;;;;;;;5049647;28;8957;-77
2022/10/04 12:10:37;;;;;;;;;7.60;7.00;;;;;;;;5047529;28;8892;-75
2022/10/04 12:13:43;;;;;;;;;11.80;10.40;;;;;;;;5047291;28;8876;-77
2022/10/04 12:16:38;;;;;;;;;9.80;9.80;;;;;;;;5042170;28;9501;-76
2022/10/04 12:19:30;;;;;;;;;12.00;10.00;;;;;;;;5048538;28;9270;-75
2022/10/04 12:22:43;;;;;;;;;6.60;6.60;;;;;;;;5050006;28;9665;-75
2022/10/04 12:25:55;;;;;;;;;6.60;6.60;;;;;;;;5033206;28;8884;-77
2022/10/04 12:28:53;;;;;;;;;8.60;8.60;;;;;;;;5023230;28;8991;-79
2022/10/04 12:31:27;;;;;;;;;7.60;7.60;;;;;;;;5030989;28;8995;-76
2022/10/04 12:34:01;;;;;;;;;6.60;6.60;;;;;;;;5047435;28;8914;-76
2022/10/04 12:36:39;;;;;;;;;6.80;6.60;;;;;;;;5048203;28;8888;-76
2022/10/04 12:39:25;;;;;;;;;6.80;6.80;;;;;;;;5033325;28;8920;-74
2022/10/04 12:42:10;;;;;;;;;5.00;5.00;;;;;;;;5050606;28;8965;-76
2022/10/04 12:44:52;;;;;;;;;6.20;5.00;;;;;;;;5049618;28;9006;-77
2022/10/04 12:47:59;;;;;;;;;3.20;3.20;;;;;;;;5054596;28;9653;-76
2022/10/04 12:50:34;;;;;;;;;4.00;4.00;;;;;;;;5027932;28;8892;-76
2022/10/04 12:53:13;;;;;;;;;4.20;4.20;;;;;;;;5052551;28;8946;-76
2022/10/04 12:56:04;;;;;;;;;4.80;4.80;;;;;;;;5052794;28;8860;-79
2022/10/04 12:58:46;;;;;;;;;3.20;3.20;;;;;;;;5051076;28;8902;-76
2022/10/04 13:01:21;;;;;;;;;5.20;5.20;;;;;;;;5052871;28;8805;-80
2022/10/04 13:04:08;;;;;;;;;4.00;4.00;;;;;;;;5050379;28;8872;-76
2022/10/04 13:06:47;;;;;;;;;3.40;3.40;;;;;;;;5052186;28;8884;-76
2022/10/04 13:09:18;;;;;;;;;5.20;4.00;;;;;;;;5052524;28;9621;-79
2022/10/04 13:12:03;;;;;;;;;5.60;5.60;;;;;;;;5050629;28;8938;-79
2022/10/04 13:14:54;;;;;;;;;5.00;3.20;;;;;;;;5050588;28;8911;-76
2022/10/04 13:17:48;;;;;;;;;6.60;4.80;;;;;;;;5050385;28;8868;-75
2022/10/04 13:20:28;;;;;;;;;4.20;4.20;;;;;;;;5052125;28;8864;-77
2022/10/04 13:23:00;;;;;;;;;4.20;3.80;;;;;;;;5052588;28;9011;-75
2022/10/04 13:25:59;;;;;;;;;2.80;2.80;;;;;;;;5051446;28;8868;-80
2022/10/04 13:28:32;;;;;;;;;5.20;5.20;;;;;;;;5045995;28;8956;-78
2022/10/04 13:31:03;;;;;;;;;6.00;6.00;;;;;;;;5053039;28;8769;-82
2022/10/04 13:33:40;;;;;;;;;8.20;5.20;;;;;;;;5051601;28;9319;-77
2022/10/04 13:36:15;;;;;;;;;5.80;5.40;;;;;;;;5053918;28;8884;-76
2022/10/04 13:39:15;;;;;;;;;5.80;5.80;;;;;;;;5051177;28;8868;-74
2022/10/04 13:42:05;;;;;;;;;9.00;7.20;;;;;;;;5033340;28;8884;-76
2022/10/04 13:44:45;;;;;;;;;6.00;6.00;;;;;;;;5051780;28;8920;-76
2022/10/04 13:47:37;;;;;;;;;9.00;7.20;;;;;;;;5051965;28;8864;-81
2022/10/04 13:50:30;;;;;;;;;6.60;6.60;;;;;;;;5051088;28;8876;-76
2022/10/04 13:58:48;;;;;;;;;6.00;6.00;;;;;;;;5050681;28;8868;-74
2022/10/04 14:01:38;;;;;;;;;4.60;4.60;;;;;;;;5049651;28;8849;-80
2022/10/04 14:04:25;;;;;;;;;7.60;7.60;;;;;;;;5048176;28;8996;-80
2022/10/04 14:07:34;;;;;;;;;7.00;7.00;;;;;;;;5051255;28;8892;-78
2022/10/04 14:10:36;;;;;;;;;5.40;5.40;;;;;;;;5049372;28;8911;-79
2022/10/04 14:13:39;;;;;;;;;8.40;5.20;;;;;;;;5049613;28;10669;-79
2022/10/04 14:16:40;;;;;;;;;7.00;6.80;;;;;;;;5049301;28;8912;-78
2022/10/04 14:19:42;;;;;;;;;5.40;5.40;;;;;;;;5020907;28;8868;-75
2022/10/04 14:22:43;;;;;;;;;5.80;5.80;;;;;;;;5031500;28;8884;-76
2022/10/04 14:25:29;;;;;;;;;7.20;7.20;;;;;;;;5048648;28;8964;-78
2022/10/04 14:28:37;;;;;;;;;9.00;7.60;;;;;;;;5051552;28;9018;-77
2022/10/04 14:31:21;;;;;;;;;7.00;7.00;;;;;;;;5048809;28;8863;-78
2022/10/04 14:34:10;;;;;;;;;7.00;7.00;;;;;;;;5047657;28;8896;-77
2022/10/04 14:36:59;;;;;;;;;6.00;6.00;;;;;;;;5051435;28;8856;-78
2022/10/04 14:40:04;;;;;;;;;6.80;6.80;;;;;;;;5050788;28;8888;-78
2022/10/04 14:42:45;;;;;;;;;8.40;7.00;;;;;;;;4991098;28;8904;-76
2022/10/04 14:45:26;;;;;;;;;7.00;7.00;;;;;;;;5048741;28;8903;-78
2022/10/04 14:48:19;;;;;;;;;6.40;6.40;;;;;;;;5030920;28;8892;-76
2022/10/04 14:50:58;;;;;;;;;4.80;4.80;;;;;;;;5047361;28;8896;-78
2022/10/04 14:53:31;;;;;;;;;4.40;4.40;;;;;;;;5050038;28;8888;-78
2022/10/04 14:56:14;;;;;;;;;8.20;8.20;;;;;;;;5046118;28;8868;-78
2022/10/04 14:58:58;;;;;;;;;6.80;6.80;;;;;;;;5048623;28;8878;-77
2022/10/04 15:01:27;;;;;;;;;6.40;5.40;;;;;;;;5047356;28;8829;-79
2022/10/04 15:04:10;;;;;;;;;7.00;7.00;;;;;;;;5046254;28;8869;-77
2022/10/04 15:06:42;;;;;;;;;6.00;6.00;;;;;;;;5043927;28;8949;-78
2022/10/04 15:09:39;;;;;;;;;6.20;6.20;;;;;;;;5046437;28;10501;-77
2022/10/04 15:12:29;;;;;;;;;6.00;6.00;;;;;;;;5049780;28;9022;-78
2022/10/04 15:15:35;;;;;;;;;7.00;7.00;;;;;;;;5047418;28;9656;-78
2022/10/04 15:18:06;;;;;;;;;6.00;6.00;;;;;;;;5048994;28;8900;-76
2022/10/04 15:20:38;;;;;;;;;5.80;5.80;;;;;;;;5051939;28;8868;-79
2022/10/04 15:23:15;;;;;;;;;7.20;5.60;;;;;;;;5028687;28;8864;-75
2022/10/04 15:25:46;;;;;;;;;7.60;5.80;;;;;;;;5029021;28;8938;-75
2022/10/04 15:28:46;;;;;;;;;7.00;7.00;;;;;;;;5050071;28;8894;-76
2022/10/04 15:31:20;;;;;;;;;4.40;4.40;;;;;;;;5026064;28;8847;-76
2022/10/04 15:34:01;;;;;;;;;6.60;5.80;;;;;;;;5048691;28;8872;-76
2022/10/04 15:36:49;;;;;;;;;6.80;6.60;;;;;;;;5048796;28;8953;-74
2022/10/04 15:39:49;;;;;;;;;6.20;5.20;;;;;;;;5031372;28;9057;-78
2022/10/04 15:42:24;;;;;;;;;6.00;6.00;;;;;;;;5025873;28;8876;-79
2022/10/04 15:45:28;;;;;;;;;5.40;5.00;;;;;;;;5045472;28;8853;-77
2022/10/04 15:48:29;;;;;;;;;6.60;6.00;;;;;;;;5046309;28;8872;-77
2022/10/04 15:51:03;;;;;;;;;7.40;6.60;;;;;;;;5048804;28;8907;-76
2022/10/04 15:53:50;;;;;;;;;8.60;8.60;;;;;;;;5047066;28;8976;-78
2022/10/04 15:56:31;;;;;;;;;5.80;5.80;;;;;;;;5049938;28;8904;-77
2022/10/04 15:59:42;;;;;;;;;5.60;5.60;;;;;;;;5048794;28;9923;-79
2022/10/04 16:02:43;;;;;;;;;6.40;6.40;;;;;;;;5046881;28;9622;-77
2022/10/04 16:05:27;;;;;;;;;5.00;5.00;;;;;;;;5047490;28;9015;-82
2022/10/04 16:08:24;;;;;;;;;5.40;5.40;;;;;;;;5048824;28;8860;-76
2022/10/04 16:11:09;;;;;;;;;5.40;3.40;;;;;;;;5043077;28;8885;-77